createdAt,value
2022-10-17T00:00:13.134Z,2.84
2022-10-17T00:01:13.121Z,2.84
2022-10-17T00:02:13.040Z,2.89
2022-10-17T00:03:13.034Z,2.98
2022-10-17T00:04:13.010Z,2.98
2022-10-17T00:05:13.007Z,3.03
2022-10-17T00:06:13.056Z,3.03
2022-10-17T00:07:13.014Z,3.03
2022-10-17T00:08:12.969Z,3.03
2022-10-17T00:09:12.961Z,3.05
2022-10-17T00:10:12.949Z,3.05
2022-10-17T00:11:12.942Z,3.05
2022-10-17T00:12:12.946Z,3.07
2022-10-17T00:13:12.923Z,3.07
2022-10-17T00:14:12.923Z,3.10
2022-10-17T00:15:12.895Z,3.10
2022-10-17T00:16:12.888Z,3.12
2022-10-17T00:17:12.907Z,3.12
2022-10-17T00:18:12.891Z,3.15
2022-10-17T00:19:12.849Z,3.15
2022-10-17T00:20:12.848Z,3.16
2022-10-17T00:21:12.841Z,3.20
2022-10-17T00:22:12.838Z,3.23
2022-10-17T00:23:12.824Z,3.28
2022-10-17T00:24:12.786Z,3.31
2022-10-17T00:25:12.830Z,3.31
2022-10-17T00:26:12.768Z,3.31
2022-10-17T00:27:12.766Z,3.36
2022-10-17T00:28:12.788Z,3.39
2022-10-17T00:29:12.743Z,3.39
2022-10-17T00:30:12.728Z,3.42
2022-10-17T00:31:12.791Z,3.40
2022-10-17T00:32:12.703Z,3.42
2022-10-17T00:33:12.706Z,3.42
2022-10-17T00:34:12.710Z,3.42
2022-10-17T00:35:12.703Z,3.42
2022-10-17T00:36:12.667Z,3.43
2022-10-17T00:37:12.640Z,3.44
2022-10-17T00:38:12.654Z,3.43
2022-10-17T00:39:12.624Z,3.43
2022-10-17T00:40:12.609Z,3.43
2022-10-17T00:41:12.638Z,3.44
2022-10-17T00:42:12.602Z,3.44
2022-10-17T00:43:12.583Z,3.46
2022-10-17T00:44:12.583Z,3.44
2022-10-17T00:45:12.567Z,3.44
2022-10-17T00:46:12.578Z,3.46
2022-10-17T00:47:12.537Z,3.47
2022-10-17T00:48:12.543Z,3.46
2022-10-17T00:49:12.514Z,3.47
2022-10-17T00:50:12.522Z,3.50
2022-10-17T00:51:12.513Z,3.50
2022-10-17T00:52:12.515Z,3.50
2022-10-17T00:53:12.472Z,3.52
2022-10-17T00:54:12.486Z,3.50
2022-10-17T00:55:12.454Z,3.52
2022-10-17T00:56:12.489Z,3.53
2022-10-17T00:57:12.496Z,3.52
2022-10-17T00:58:12.415Z,3.50
2022-10-17T00:59:12.427Z,3.52
2022-10-17T01:00:12.409Z,3.50
2022-10-17T01:01:12.408Z,3.50
2022-10-17T01:02:12.378Z,3.50
2022-10-17T01:03:12.373Z,3.50
2022-10-17T01:04:12.347Z,3.50
2022-10-17T01:05:12.338Z,3.52
2022-10-17T01:06:12.340Z,3.50
2022-10-17T01:07:12.323Z,3.52
2022-10-17T01:08:12.302Z,3.53
2022-10-17T01:09:12.291Z,3.50
2022-10-17T01:10:12.401Z,3.52
2022-10-17T01:11:12.287Z,3.52
2022-10-17T01:12:12.258Z,3.50
2022-10-17T01:13:12.252Z,3.50
2022-10-17T01:14:12.225Z,3.50
2022-10-17T01:15:12.238Z,3.50
2022-10-17T01:16:12.238Z,3.47
2022-10-17T01:17:12.215Z,3.46
2022-10-17T01:18:12.218Z,3.46
2022-10-17T01:19:12.188Z,3.46
2022-10-17T01:20:12.205Z,3.43
2022-10-17T01:21:12.153Z,3.43
2022-10-17T01:22:12.140Z,3.42
2022-10-17T01:23:12.158Z,3.40
2022-10-17T01:24:12.126Z,3.42
2022-10-17T01:25:12.110Z,3.40
2022-10-17T01:26:12.136Z,3.40
2022-10-17T01:27:12.090Z,3.39
2022-10-17T01:28:12.062Z,3.34
2022-10-17T01:29:12.100Z,3.36
2022-10-17T01:30:12.047Z,3.34
2022-10-17T01:31:12.051Z,3.34
2022-10-17T01:32:12.024Z,3.33
2022-10-17T01:33:12.036Z,3.30
2022-10-17T01:34:12.029Z,3.28
2022-10-17T01:35:12.008Z,3.28
2022-10-17T01:36:11.998Z,3.27
2022-10-17T01:37:11.987Z,3.25
2022-10-17T01:38:11.969Z,3.25
2022-10-17T01:39:11.997Z,3.27
2022-10-17T01:40:11.933Z,3.25
2022-10-17T01:41:11.949Z,3.23
2022-10-17T01:42:11.918Z,3.24
2022-10-17T01:43:11.913Z,3.24
2022-10-17T01:44:11.918Z,3.20
2022-10-17T01:45:11.877Z,3.18
2022-10-17T01:46:11.860Z,3.16
2022-10-17T01:47:11.863Z,3.15
2022-10-17T01:48:11.843Z,3.13
2022-10-17T01:49:11.867Z,3.12
2022-10-17T01:50:11.845Z,3.12
2022-10-17T01:51:11.814Z,3.12
2022-10-17T01:52:11.823Z,3.10
2022-10-17T01:53:11.792Z,3.10
2022-10-17T01:54:11.796Z,3.10
2022-10-17T01:55:11.783Z,3.09
2022-10-17T01:56:11.761Z,3.09
2022-10-17T01:57:11.760Z,3.12
2022-10-17T01:58:11.753Z,3.13
2022-10-17T01:59:11.781Z,3.12
2022-10-17T02:00:11.710Z,3.15
2022-10-17T02:01:11.771Z,3.12
2022-10-17T02:02:11.714Z,3.13
2022-10-17T02:03:11.690Z,3.12
2022-10-17T02:04:11.683Z,3.12
2022-10-17T02:05:11.674Z,3.09
2022-10-17T02:06:11.645Z,3.09
2022-10-17T02:07:11.649Z,3.07
2022-10-17T02:08:11.616Z,3.06
2022-10-17T02:09:11.641Z,3.05
2022-10-17T02:10:11.637Z,3.05
2022-10-17T02:11:11.579Z,3.03
2022-10-17T02:12:11.598Z,3.03
2022-10-17T02:13:11.575Z,3.03
2022-10-17T02:15:11.560Z,3.00
2022-10-17T02:16:11.532Z,2.98
2022-10-17T02:17:11.571Z,2.98
2022-10-17T02:18:11.556Z,2.98
2022-10-17T02:19:11.504Z,3.03
2022-10-17T02:20:11.482Z,3.02
2022-10-17T02:21:11.479Z,3.02
2022-10-17T02:22:11.473Z,3.00
2022-10-17T02:23:11.518Z,2.98
2022-10-17T02:24:11.444Z,2.97
2022-10-17T02:25:11.448Z,2.98
2022-10-17T02:26:11.425Z,2.98
2022-10-17T02:27:11.413Z,2.97
2022-10-17T02:28:11.426Z,2.92
2022-10-17T02:29:11.388Z,2.92
2022-10-17T02:30:11.411Z,2.89
2022-10-17T02:31:11.371Z,2.88
2022-10-17T02:32:11.409Z,2.85
2022-10-17T02:33:11.371Z,2.84
2022-10-17T02:34:11.329Z,2.79
2022-10-17T02:35:11.358Z,2.76
2022-10-17T02:36:11.309Z,2.73
2022-10-17T02:37:11.297Z,2.73
2022-10-17T02:38:11.317Z,2.69
2022-10-17T02:39:11.310Z,2.70
2022-10-17T02:40:11.275Z,2.70
2022-10-17T02:41:11.259Z,2.71
2022-10-17T02:42:11.254Z,2.71
2022-10-17T02:43:11.251Z,2.71
2022-10-17T02:44:11.255Z,2.71
2022-10-17T02:45:11.206Z,2.71
2022-10-17T02:46:11.212Z,2.70
2022-10-17T02:47:11.193Z,2.71
2022-10-17T02:48:11.178Z,2.73
2022-10-17T02:49:11.166Z,2.74
2022-10-17T02:50:11.166Z,2.74
2022-10-17T02:51:11.146Z,2.77
2022-10-17T02:52:11.143Z,2.79
2022-10-17T02:53:11.121Z,2.81
2022-10-17T02:54:11.121Z,2.79
2022-10-17T02:55:11.132Z,2.81
2022-10-17T02:56:11.135Z,2.81
2022-10-17T02:57:11.078Z,2.77
2022-10-17T02:58:11.069Z,2.77
2022-10-17T02:59:11.107Z,2.74
2022-10-17T03:00:11.046Z,2.74
2022-10-17T03:01:11.103Z,2.74
2022-10-17T03:02:11.028Z,2.76
2022-10-17T03:03:11.018Z,2.74
2022-10-17T03:04:11.023Z,2.74
2022-10-17T03:05:10.998Z,2.71
2022-10-17T03:06:10.990Z,2.67
2022-10-17T03:07:10.964Z,2.61
2022-10-17T03:08:10.982Z,2.61
2022-10-17T03:09:10.946Z,2.61
2022-10-17T03:10:10.929Z,2.58
2022-10-17T03:11:10.939Z,2.53
2022-10-17T03:12:10.940Z,2.49
2022-10-17T03:13:10.911Z,2.48
2022-10-17T03:14:10.884Z,2.46
2022-10-17T03:15:10.885Z,2.45
2022-10-17T03:16:10.898Z,2.49
2022-10-17T03:17:10.872Z,2.48
2022-10-17T03:18:10.843Z,2.48
2022-10-17T03:19:10.845Z,2.46
2022-10-17T03:20:10.848Z,2.52
2022-10-17T03:21:10.828Z,2.82
2022-10-17T03:22:10.808Z,2.91
2022-10-17T03:23:10.789Z,2.95
2022-10-17T03:24:10.779Z,3.03
2022-10-17T03:25:10.764Z,3.10
2022-10-17T03:26:10.772Z,3.13
2022-10-17T03:27:10.742Z,3.23
2022-10-17T03:28:10.733Z,3.33
2022-10-17T03:29:10.847Z,3.34
2022-10-17T03:30:10.712Z,3.39
2022-10-17T03:31:10.699Z,3.43
2022-10-17T03:32:10.714Z,3.36
2022-10-17T03:33:10.711Z,3.42
2022-10-17T03:34:10.654Z,3.34
2022-10-17T03:35:14.818Z,3.34
2022-10-17T03:36:10.673Z,3.31
2022-10-17T03:37:10.629Z,3.28
2022-10-17T03:38:10.661Z,3.28
2022-10-17T03:39:10.659Z,3.25
2022-10-17T03:40:10.606Z,3.24
2022-10-17T03:41:10.574Z,3.36
2022-10-17T03:42:10.569Z,3.47
2022-10-17T03:43:10.559Z,3.47
2022-10-17T03:44:10.587Z,3.43
2022-10-17T03:45:10.550Z,3.36
2022-10-17T03:46:10.657Z,3.34
2022-10-17T03:47:13.362Z,3.39
2022-10-17T03:48:10.528Z,3.33
2022-10-17T03:49:10.494Z,3.33
2022-10-17T03:50:10.491Z,3.34
2022-10-17T03:51:10.506Z,3.33
2022-10-17T03:52:10.489Z,3.31
2022-10-17T03:53:10.525Z,3.30
2022-10-17T03:54:10.454Z,3.27
2022-10-17T03:55:10.424Z,3.24
2022-10-17T03:56:10.411Z,3.27
2022-10-17T03:57:10.465Z,3.25
2022-10-17T03:58:10.390Z,3.30
2022-10-17T03:59:10.373Z,3.42
2022-10-17T04:00:10.391Z,3.40
2022-10-17T04:01:10.384Z,3.36
2022-10-17T04:02:10.336Z,3.36
2022-10-17T04:03:14.955Z,3.34
2022-10-17T04:04:10.320Z,3.31
2022-10-17T04:05:10.313Z,3.31
2022-10-17T04:06:10.319Z,3.28
2022-10-17T04:07:10.298Z,3.25
2022-10-17T04:08:10.305Z,3.16
2022-10-17T04:09:10.282Z,3.09
2022-10-17T04:10:10.248Z,3.02
2022-10-17T04:11:10.257Z,2.97
2022-10-17T04:12:10.246Z,2.91
2022-10-17T04:13:10.231Z,2.84
2022-10-17T04:14:10.245Z,2.81
2022-10-17T04:15:10.211Z,2.87
2022-10-17T04:16:10.253Z,2.88
2022-10-17T04:17:10.182Z,2.89
2022-10-17T04:18:10.201Z,2.89
2022-10-17T04:19:10.176Z,2.92
2022-10-17T04:20:10.171Z,2.98
2022-10-17T04:21:10.157Z,3.00
2022-10-17T04:22:10.120Z,3.09
2022-10-17T04:23:10.163Z,3.21
2022-10-17T04:24:10.130Z,3.30
2022-10-17T04:25:10.115Z,3.43
2022-10-17T04:26:10.086Z,3.53
2022-10-17T04:27:10.095Z,3.67
2022-10-17T04:28:10.051Z,3.72
2022-10-17T04:29:10.057Z,3.78
2022-10-17T04:30:10.044Z,3.78
2022-10-17T04:31:10.095Z,3.76
2022-10-17T04:32:10.019Z,3.72
2022-10-17T04:33:10.041Z,3.82
2022-10-17T04:34:10.020Z,3.90
2022-10-17T04:35:09.984Z,4.01
2022-10-17T04:36:10.001Z,3.98
2022-10-17T04:37:09.944Z,3.96
2022-10-17T04:38:09.946Z,3.94
2022-10-17T04:39:09.990Z,3.96
2022-10-17T04:40:09.937Z,4.00
2022-10-17T04:41:09.904Z,4.01
2022-10-17T04:42:09.955Z,4.04
2022-10-17T04:43:09.899Z,4.10
2022-10-17T04:44:09.907Z,4.12
2022-10-17T04:45:09.880Z,4.15
2022-10-17T04:46:09.850Z,4.21
2022-10-17T04:47:09.857Z,4.24
2022-10-17T04:48:09.858Z,4.22
2022-10-17T04:49:09.817Z,4.26
2022-10-17T04:50:09.818Z,4.24
2022-10-17T04:51:09.797Z,4.22
2022-10-17T04:52:09.780Z,4.18
2022-10-17T04:53:09.783Z,4.16
2022-10-17T04:54:09.759Z,4.16
2022-10-17T04:55:09.753Z,4.25
2022-10-17T04:56:09.761Z,4.39
2022-10-17T04:57:09.755Z,4.42
2022-10-17T04:58:09.729Z,4.40
2022-10-17T04:59:09.719Z,4.39
2022-10-17T05:01:09.741Z,4.32
2022-10-17T05:02:09.709Z,4.26
2022-10-17T05:03:09.670Z,4.26
2022-10-17T05:04:09.692Z,4.26
2022-10-17T05:05:09.712Z,4.22
2022-10-17T05:06:09.633Z,4.22
2022-10-17T05:07:09.653Z,4.22
2022-10-17T05:08:09.618Z,4.19
2022-10-17T05:09:09.594Z,4.16
2022-10-17T05:10:09.583Z,4.14
2022-10-17T05:11:09.582Z,4.12
2022-10-17T05:12:10.486Z,4.14
2022-10-17T05:13:09.576Z,4.14
2022-10-17T05:14:09.716Z,4.16
2022-10-17T05:15:09.537Z,4.16
2022-10-17T05:16:09.527Z,4.18
2022-10-17T05:17:09.503Z,4.15
2022-10-17T05:18:09.480Z,4.14
2022-10-17T05:19:09.487Z,4.07
2022-10-17T05:20:09.500Z,3.98
2022-10-17T05:21:10.283Z,3.82
2022-10-17T05:22:09.435Z,3.88
2022-10-17T05:23:09.473Z,3.86
2022-10-17T05:24:09.435Z,3.79
2022-10-17T05:25:09.408Z,3.72
2022-10-17T05:26:09.405Z,3.68
2022-10-17T05:27:09.422Z,3.62
2022-10-17T05:28:09.376Z,3.57
2022-10-17T05:29:09.398Z,3.52
2022-10-17T05:30:09.359Z,3.47
2022-10-17T05:31:09.973Z,3.40
2022-10-17T05:32:09.347Z,3.39
2022-10-17T05:33:09.335Z,3.33
2022-10-17T05:34:11.615Z,3.39
2022-10-17T05:35:09.342Z,3.33
2022-10-17T05:36:09.303Z,3.33
2022-10-17T05:37:09.295Z,3.30
2022-10-17T05:38:09.321Z,3.25
2022-10-17T05:39:09.276Z,3.23
2022-10-17T05:40:09.251Z,3.20
2022-10-17T05:41:09.281Z,3.16
2022-10-17T05:42:09.212Z,3.12
2022-10-17T05:43:09.208Z,3.07
2022-10-17T05:44:09.205Z,3.05
2022-10-17T05:45:09.190Z,3.13
2022-10-17T05:46:09.188Z,3.15
2022-10-17T05:47:09.191Z,3.15
2022-10-17T05:48:09.153Z,3.13
2022-10-17T05:49:14.957Z,3.15
2022-10-17T05:50:09.219Z,3.20
2022-10-17T05:51:09.131Z,3.24
2022-10-17T05:52:09.122Z,3.23
2022-10-17T05:53:09.123Z,3.25
2022-10-17T05:54:09.121Z,3.34
2022-10-17T05:55:09.071Z,3.44
2022-10-17T05:56:09.165Z,3.60
2022-10-17T05:57:09.061Z,3.80
2022-10-17T05:58:11.747Z,4.14
2022-10-17T05:59:09.032Z,4.34
2022-10-17T06:00:09.007Z,4.46
2022-10-17T06:01:10.756Z,4.50
2022-10-17T06:02:09.050Z,4.52
2022-10-17T06:03:09.013Z,4.54
2022-10-17T06:04:08.984Z,4.52
2022-10-17T06:05:08.974Z,4.51
2022-10-17T06:06:08.937Z,4.57
2022-10-17T06:07:08.984Z,4.57
2022-10-17T06:08:08.935Z,4.52
2022-10-17T06:09:09.471Z,4.46
2022-10-17T06:10:08.902Z,4.39
2022-10-17T06:11:10.260Z,4.46
2022-10-17T06:12:08.887Z,4.54
2022-10-17T06:13:08.888Z,4.52
2022-10-17T06:14:08.846Z,4.51
2022-10-17T06:15:08.855Z,4.42
2022-10-17T06:16:08.897Z,4.36
2022-10-17T06:17:13.403Z,4.28
2022-10-17T06:18:08.835Z,4.21
2022-10-17T06:19:08.812Z,4.19
2022-10-17T06:20:08.804Z,4.21
2022-10-17T06:21:08.800Z,4.26
2022-10-17T06:22:08.790Z,4.34
2022-10-17T06:23:08.774Z,4.36
2022-10-17T06:24:08.758Z,4.36
2022-10-17T06:25:08.738Z,4.34
2022-10-17T06:26:08.719Z,4.29
2022-10-17T06:27:11.788Z,4.25
2022-10-17T06:28:08.714Z,4.18
2022-10-17T06:29:08.733Z,4.08
2022-10-17T06:30:08.676Z,4.04
2022-10-17T06:31:08.718Z,4.01
2022-10-17T06:32:11.200Z,3.98
2022-10-17T06:33:08.702Z,3.92
2022-10-17T06:34:08.635Z,3.85
2022-10-17T06:35:08.619Z,3.80
2022-10-17T06:36:08.643Z,3.75
2022-10-17T06:37:08.637Z,3.68
2022-10-17T06:38:08.610Z,3.68
2022-10-17T06:39:08.638Z,3.65
2022-10-17T06:40:08.563Z,3.61
2022-10-17T06:41:08.604Z,3.61
2022-10-17T06:42:08.553Z,3.67
2022-10-17T06:43:08.578Z,3.72
2022-10-17T06:44:08.566Z,3.76
2022-10-17T06:45:08.536Z,3.85
2022-10-17T06:46:08.703Z,3.88
2022-10-17T06:47:08.492Z,3.94
2022-10-17T06:48:08.502Z,4.01
2022-10-17T06:49:08.473Z,4.04
2022-10-17T06:50:08.500Z,4.12
2022-10-17T06:51:08.471Z,4.14
2022-10-17T06:52:08.427Z,4.19
2022-10-17T06:53:08.513Z,4.16
2022-10-17T06:54:08.421Z,4.12
2022-10-17T06:55:08.404Z,4.07
2022-10-17T06:56:08.399Z,4.03
2022-10-17T06:57:08.384Z,4.01
2022-10-17T06:58:08.386Z,3.97
2022-10-17T06:59:08.347Z,4.00
2022-10-17T07:00:08.405Z,3.98
2022-10-17T07:02:08.351Z,4.00
2022-10-17T07:03:08.325Z,4.08
2022-10-17T07:04:08.303Z,4.14
2022-10-17T07:05:08.285Z,4.15
2022-10-17T07:06:08.308Z,4.22
2022-10-17T07:07:08.286Z,4.43
2022-10-17T07:08:09.381Z,4.65
2022-10-17T07:09:08.234Z,4.79
2022-10-17T07:10:08.229Z,4.88
2022-10-17T07:11:08.253Z,4.88
2022-10-17T07:12:08.242Z,4.89
2022-10-17T07:13:08.224Z,4.91
2022-10-17T07:14:08.194Z,4.99
2022-10-17T07:15:08.179Z,5.04
2022-10-17T07:16:08.172Z,5.09
2022-10-17T07:17:08.244Z,5.12
2022-10-17T07:18:08.163Z,5.10
2022-10-17T07:19:08.135Z,5.16
2022-10-17T07:20:08.166Z,5.19
2022-10-17T07:21:08.122Z,5.20
2022-10-17T07:22:08.107Z,5.20
2022-10-17T07:23:08.120Z,5.20
2022-10-17T07:24:08.104Z,5.17
2022-10-17T07:25:08.068Z,5.14
2022-10-17T07:26:08.078Z,5.12
2022-10-17T07:27:08.036Z,5.10
2022-10-17T07:28:08.026Z,5.12
2022-10-17T07:29:08.142Z,5.17
2022-10-17T07:30:08.064Z,5.28
2022-10-17T07:31:08.021Z,5.35
2022-10-17T07:32:08.079Z,5.40
2022-10-17T07:33:08.108Z,5.43
2022-10-17T07:34:07.980Z,5.52
2022-10-17T07:35:07.969Z,5.60
2022-10-17T07:36:08.003Z,5.66
2022-10-17T07:37:07.973Z,5.73
2022-10-17T07:38:07.952Z,5.77
2022-10-17T07:39:07.895Z,5.75
2022-10-17T07:40:09.153Z,5.78
2022-10-17T07:41:07.900Z,5.82
2022-10-17T07:42:07.888Z,5.85
2022-10-17T07:43:07.933Z,5.86
2022-10-17T07:44:07.859Z,5.89
2022-10-17T07:45:07.853Z,5.95
2022-10-17T07:46:07.844Z,5.98
2022-10-17T07:47:07.812Z,6.01
2022-10-17T07:48:07.817Z,6.01
2022-10-17T07:49:07.817Z,6.04
2022-10-17T07:50:07.805Z,6.04
2022-10-17T07:51:07.769Z,6.04
2022-10-17T07:52:07.805Z,6.03
2022-10-17T07:53:07.780Z,6.03
2022-10-17T07:54:07.737Z,6.03
2022-10-17T07:55:07.744Z,6.00
2022-10-17T07:56:07.800Z,6.00
2022-10-17T07:57:07.716Z,5.98
2022-10-17T07:58:07.707Z,5.96
2022-10-17T07:59:09.415Z,6.00
2022-10-17T08:00:07.667Z,6.01
2022-10-17T08:01:10.695Z,6.01
2022-10-17T08:02:07.716Z,6.00
2022-10-17T08:03:07.656Z,5.98
2022-10-17T08:04:07.628Z,6.00
2022-10-17T08:05:07.667Z,6.01
2022-10-17T08:06:07.622Z,6.06
2022-10-17T08:07:21.739Z,6.07
2022-10-17T08:08:07.623Z,6.10
2022-10-17T08:09:07.580Z,6.13
2022-10-17T08:11:07.590Z,6.18
2022-10-17T08:12:07.535Z,6.16
2022-10-17T08:13:07.618Z,6.14
2022-10-17T08:14:07.522Z,6.16
2022-10-17T08:15:07.512Z,6.19
2022-10-17T08:16:07.523Z,6.21
2022-10-17T08:17:07.538Z,6.25
2022-10-17T08:18:07.468Z,6.28
2022-10-17T08:20:07.465Z,6.40
2022-10-17T08:21:08.440Z,6.44
2022-10-17T08:22:07.433Z,6.48
2022-10-17T08:23:07.437Z,6.51
2022-10-17T08:24:07.427Z,6.53
2022-10-17T08:25:07.386Z,6.51
2022-10-17T08:26:07.506Z,6.54
2022-10-17T08:27:07.379Z,6.58
2022-10-17T08:29:07.483Z,6.68
2022-10-17T08:30:07.333Z,6.72
2022-10-17T08:31:07.326Z,6.77
2022-10-17T08:32:09.571Z,6.81
2022-10-17T08:33:07.300Z,6.86
2022-10-17T08:34:07.315Z,6.91
2022-10-17T08:35:07.333Z,6.94
2022-10-17T08:36:07.324Z,6.89
2022-10-17T08:37:07.303Z,6.87
2022-10-17T08:38:09.048Z,6.81
2022-10-17T08:39:07.228Z,6.76
2022-10-17T08:40:07.231Z,6.76
2022-10-17T08:41:07.272Z,6.71
2022-10-17T08:42:07.250Z,6.76
2022-10-17T08:43:07.197Z,6.80
2022-10-17T08:44:07.187Z,6.84
2022-10-17T08:45:07.189Z,6.87
2022-10-17T08:46:07.184Z,6.87
2022-10-17T08:47:07.151Z,6.86
2022-10-17T08:48:07.135Z,6.83
2022-10-17T08:49:10.056Z,6.79
2022-10-17T08:50:07.150Z,6.81
2022-10-17T08:51:07.104Z,6.91
2022-10-17T08:52:07.120Z,6.97
2022-10-17T08:53:07.102Z,7.05
2022-10-17T08:54:07.054Z,7.16
2022-10-17T08:55:07.121Z,7.34
2022-10-17T08:56:11.882Z,7.49
2022-10-17T08:57:07.075Z,7.66
2022-10-17T08:58:07.206Z,7.74
2022-10-17T08:59:06.999Z,7.84
2022-10-17T09:00:06.983Z,7.82
2022-10-17T09:01:12.738Z,7.87
2022-10-17T09:02:07.005Z,7.93
2022-10-17T09:03:07.060Z,7.92
2022-10-17T09:04:06.962Z,7.89
2022-10-17T09:05:06.940Z,7.84
2022-10-17T09:06:06.913Z,7.74
2022-10-17T09:07:06.999Z,7.58
2022-10-17T09:08:06.915Z,7.53
2022-10-17T09:09:06.943Z,7.53
2022-10-17T09:10:06.899Z,7.47
2022-10-17T09:11:06.909Z,7.38
2022-10-17T09:12:06.868Z,7.31
2022-10-17T09:13:07.943Z,7.20
2022-10-17T09:14:06.873Z,7.13
2022-10-17T09:15:06.812Z,7.12
2022-10-17T09:16:06.807Z,7.02
2022-10-17T09:17:06.844Z,6.97
2022-10-17T09:18:06.800Z,6.91
2022-10-17T09:19:06.801Z,6.94
2022-10-17T09:20:06.839Z,6.94
2022-10-17T09:21:06.766Z,6.94
2022-10-17T09:22:06.748Z,6.95
2022-10-17T09:23:06.769Z,6.98
2022-10-17T09:24:09.589Z,7.02
2022-10-17T09:25:06.726Z,7.05
2022-10-17T09:26:06.732Z,7.09
2022-10-17T09:27:06.715Z,7.13
2022-10-17T09:28:06.695Z,7.19
2022-10-17T09:29:06.754Z,7.23
2022-10-17T09:30:07.260Z,7.29
2022-10-17T09:31:06.667Z,7.34
2022-10-17T09:32:06.648Z,7.38
2022-10-17T09:33:06.634Z,7.41
2022-10-17T09:34:06.606Z,7.44
2022-10-17T09:35:06.613Z,7.38
2022-10-17T09:36:06.642Z,7.37
2022-10-17T09:37:06.589Z,7.32
2022-10-17T09:38:06.619Z,7.27
2022-10-17T09:39:06.556Z,7.27
2022-10-17T09:40:06.550Z,7.24
2022-10-17T09:41:19.974Z,7.29
2022-10-17T09:42:06.545Z,7.29
2022-10-17T09:43:06.522Z,7.31
2022-10-17T09:44:06.504Z,7.29
2022-10-17T09:45:06.498Z,7.29
2022-10-17T09:46:06.479Z,7.29
2022-10-17T09:47:06.476Z,7.38
2022-10-17T09:48:06.447Z,7.53
2022-10-17T09:49:06.449Z,7.60
2022-10-17T09:50:06.439Z,7.63
2022-10-17T09:51:21.793Z,7.63
2022-10-17T09:52:06.500Z,7.67
2022-10-17T09:53:06.404Z,7.78
2022-10-17T09:54:06.427Z,7.90
2022-10-17T09:55:06.379Z,7.94
2022-10-17T09:56:06.373Z,7.92
2022-10-17T09:57:06.428Z,8.03
2022-10-17T09:58:06.368Z,8.04
2022-10-17T09:59:09.314Z,8.02
2022-10-17T10:00:06.403Z,7.93
2022-10-17T10:01:06.367Z,7.89
2022-10-17T10:02:06.321Z,7.84
2022-10-17T10:03:06.315Z,7.79
2022-10-17T10:04:06.331Z,7.78
2022-10-17T10:05:07.065Z,7.74
2022-10-17T10:06:06.248Z,7.74
2022-10-17T10:07:06.231Z,7.69
2022-10-17T10:08:06.231Z,7.66
2022-10-17T10:09:06.252Z,7.60
2022-10-17T10:10:06.249Z,7.62
2022-10-17T10:11:06.538Z,7.62
2022-10-17T10:12:06.206Z,7.60
2022-10-17T10:13:06.193Z,7.59
2022-10-17T10:14:06.170Z,7.58
2022-10-17T10:15:06.178Z,7.58
2022-10-17T10:16:06.201Z,7.49
2022-10-17T10:17:06.133Z,7.44
2022-10-17T10:18:06.104Z,7.45
2022-10-17T10:19:08.429Z,7.45
2022-10-17T10:20:06.258Z,7.47
2022-10-17T10:21:06.095Z,7.45
2022-10-17T10:22:06.062Z,7.47
2022-10-17T10:23:06.067Z,7.52
2022-10-17T10:24:06.079Z,7.58
2022-10-17T10:25:06.056Z,7.62
2022-10-17T10:26:06.059Z,7.67
2022-10-17T10:27:06.027Z,7.79
2022-10-17T10:28:06.026Z,7.93
2022-10-17T10:29:06.121Z,7.99
2022-10-17T10:30:05.996Z,8.03
2022-10-17T10:31:06.045Z,8.11
2022-10-17T10:32:05.975Z,8.12
2022-10-17T10:33:05.944Z,8.11
2022-10-17T10:34:05.984Z,8.08
2022-10-17T10:35:05.940Z,8.03
2022-10-17T10:36:05.929Z,8.02
2022-10-17T10:37:05.921Z,8.03
2022-10-17T10:38:05.901Z,8.04
2022-10-17T10:39:05.902Z,8.08
2022-10-17T10:40:05.890Z,8.11
2022-10-17T10:41:05.931Z,8.10
2022-10-17T10:42:05.834Z,8.03
2022-10-17T10:43:05.874Z,8.02
2022-10-17T10:44:05.858Z,8.02
2022-10-17T10:45:06.336Z,7.99
2022-10-17T10:46:05.841Z,7.97
2022-10-17T10:47:05.796Z,8.00
2022-10-17T10:48:05.773Z,8.02
2022-10-17T10:49:05.816Z,8.00
2022-10-17T10:50:05.766Z,7.97
2022-10-17T10:51:05.796Z,7.97
2022-10-17T10:52:05.743Z,8.07
2022-10-17T10:53:05.721Z,8.03
2022-10-17T10:54:05.703Z,7.97
2022-10-17T10:55:05.741Z,8.07
2022-10-17T10:56:05.697Z,8.11
2022-10-17T10:57:05.686Z,8.10
2022-10-17T10:58:05.683Z,8.12
2022-10-17T10:59:05.733Z,8.21
2022-10-17T11:00:05.645Z,8.30
2022-10-17T11:01:05.745Z,8.29
2022-10-17T11:02:05.643Z,8.30
2022-10-17T11:03:07.576Z,8.33
2022-10-17T11:04:05.617Z,8.29
2022-10-17T11:05:05.617Z,8.28
2022-10-17T11:06:05.591Z,8.33
2022-10-17T11:07:05.607Z,8.39
2022-10-17T11:08:05.559Z,8.39
2022-10-17T11:09:05.585Z,8.42
2022-10-17T11:10:05.517Z,8.45
2022-10-17T11:11:05.524Z,8.47
2022-10-17T11:12:05.515Z,8.40
2022-10-17T11:13:05.500Z,8.33
2022-10-17T11:14:05.539Z,8.29
2022-10-17T11:15:05.512Z,8.26
2022-10-17T11:16:05.484Z,8.30
2022-10-17T11:17:05.479Z,8.30
2022-10-17T11:18:05.452Z,8.30
2022-10-17T11:19:05.525Z,8.28
2022-10-17T11:20:05.444Z,8.28
2022-10-17T11:21:05.414Z,8.22
2022-10-17T11:22:05.415Z,8.12
2022-10-17T11:23:05.391Z,8.04
2022-10-17T11:24:07.037Z,8.02
2022-10-17T11:25:05.411Z,7.97
2022-10-17T11:26:05.395Z,7.90
2022-10-17T11:27:05.343Z,7.87
2022-10-17T11:28:05.501Z,7.84
2022-10-17T11:29:05.384Z,7.84
2022-10-17T11:30:05.311Z,7.78
2022-10-17T11:31:07.275Z,7.84
2022-10-17T11:32:06.121Z,7.87
2022-10-17T11:33:05.278Z,7.92
2022-10-17T11:34:05.254Z,7.90
2022-10-17T11:35:05.274Z,7.97
2022-10-17T11:36:05.255Z,8.03
2022-10-17T11:37:05.236Z,8.03
2022-10-17T11:38:05.240Z,8.08
2022-10-17T11:39:05.258Z,8.14
2022-10-17T11:40:05.209Z,8.15
2022-10-17T11:41:05.181Z,8.10
2022-10-17T11:42:05.162Z,8.07
2022-10-17T11:43:05.232Z,8.07
2022-10-17T11:44:05.143Z,8.14
2022-10-17T11:45:05.169Z,8.18
2022-10-17T11:46:05.199Z,8.20
2022-10-17T11:47:05.156Z,8.22
2022-10-17T11:48:05.153Z,8.18
2022-10-17T11:49:05.151Z,8.11
2022-10-17T11:52:05.094Z,8.15
2022-10-17T11:53:05.119Z,8.15
2022-10-17T11:54:05.042Z,8.17
2022-10-17T11:55:05.058Z,8.21
2022-10-17T11:56:05.014Z,8.26
2022-10-17T11:57:05.048Z,8.28
2022-10-17T11:58:05.033Z,8.22
2022-10-17T11:59:05.020Z,8.26
2022-10-17T12:00:05.024Z,8.33
2022-10-17T12:01:05.010Z,8.36
2022-10-17T12:02:04.954Z,8.33
2022-10-17T12:03:04.947Z,8.36
2022-10-17T12:04:05.038Z,8.35
2022-10-17T12:05:04.945Z,8.37
2022-10-17T12:06:04.932Z,8.42
2022-10-17T12:07:04.887Z,8.50
2022-10-17T12:08:04.904Z,8.51
2022-10-17T12:09:04.900Z,8.54
2022-10-17T12:10:04.885Z,8.55
2022-10-17T12:11:04.869Z,8.57
2022-10-17T12:12:04.859Z,8.51
2022-10-17T12:13:04.830Z,8.45
2022-10-17T12:14:06.122Z,8.48
2022-10-17T12:15:04.791Z,8.53
2022-10-17T12:16:04.788Z,8.53
2022-10-17T12:17:04.790Z,8.55
2022-10-17T12:18:04.777Z,8.53
2022-10-17T12:19:04.752Z,8.53
2022-10-17T12:20:04.757Z,8.53
2022-10-17T12:21:04.756Z,8.53
2022-10-17T12:22:04.728Z,8.54
2022-10-17T12:23:04.733Z,8.60
2022-10-17T12:24:04.690Z,8.57
2022-10-17T12:25:04.702Z,8.55
2022-10-17T12:26:05.362Z,8.51
2022-10-17T12:27:04.661Z,8.51
2022-10-17T12:28:04.657Z,8.45
2022-10-17T12:29:04.727Z,8.42
2022-10-17T12:30:04.647Z,8.42
2022-10-17T12:31:04.663Z,8.47
2022-10-17T12:32:04.626Z,8.44
2022-10-17T12:33:06.466Z,8.47
2022-10-17T12:34:04.625Z,8.42
2022-10-17T12:35:04.565Z,8.42
2022-10-17T12:36:04.642Z,8.37
2022-10-17T12:37:04.835Z,8.36
2022-10-17T12:38:04.538Z,8.33
2022-10-17T12:39:04.539Z,8.36
2022-10-17T12:40:04.521Z,8.42
2022-10-17T12:41:05.055Z,8.44
2022-10-17T12:42:04.551Z,8.35
2022-10-17T12:43:04.484Z,8.32
2022-10-17T12:44:04.485Z,8.32
2022-10-17T12:45:04.495Z,8.33
2022-10-17T12:46:04.482Z,8.35
2022-10-17T12:47:04.446Z,8.36
2022-10-17T12:48:05.200Z,8.30
2022-10-17T12:49:04.432Z,8.25
2022-10-17T12:50:04.410Z,8.22
2022-10-17T12:51:30.875Z,8.22
2022-10-17T12:52:04.447Z,8.21
2022-10-17T12:53:04.372Z,8.18
2022-10-17T12:54:04.369Z,8.18
2022-10-17T12:55:12.226Z,8.25
2022-10-17T12:56:04.357Z,8.26
2022-10-17T12:57:04.334Z,8.26
2022-10-17T12:58:04.339Z,8.21
2022-10-17T12:59:04.339Z,8.20
2022-10-17T13:00:04.284Z,8.18
2022-10-17T13:01:23.082Z,8.18
2022-10-17T13:02:04.378Z,8.11
2022-10-17T13:03:04.295Z,8.08
2022-10-17T13:04:04.251Z,8.04
2022-10-17T13:05:04.240Z,7.99
2022-10-17T13:06:04.385Z,7.94
2022-10-17T13:07:04.221Z,7.93
2022-10-17T13:08:04.209Z,7.90
2022-10-17T13:09:05.489Z,7.85
2022-10-17T13:10:04.244Z,7.87
2022-10-17T13:11:04.185Z,7.89
2022-10-17T13:12:04.157Z,7.87
2022-10-17T13:13:04.177Z,7.85
2022-10-17T13:14:04.155Z,7.85
2022-10-17T13:15:04.147Z,7.85
2022-10-17T13:16:04.159Z,7.85
2022-10-17T13:17:04.117Z,7.84
2022-10-17T13:18:04.127Z,7.85
2022-10-17T13:19:04.140Z,7.84
2022-10-17T13:20:04.139Z,7.84
2022-10-17T13:21:04.063Z,7.85
2022-10-17T13:22:07.060Z,7.84
2022-10-17T13:23:04.051Z,7.85
2022-10-17T13:24:04.033Z,7.87
2022-10-17T13:25:04.030Z,7.87
2022-10-17T13:26:04.030Z,7.90